Time;durP1;ratioP1;P1;durP2;ratioP2;P2;SDS_P1;SDS_P2;PMS_P1;PMS_P2;Temp;Humidity;BMP_temperature;BMP_pressure;BME280_temperature;BME280_humidity;BME280_pressure;Samples;Min_cycle;Max_cycle;Signal;HPM_P1;HPM_P2
2023/01/02 00:02:00;;;;;;;17.42;11.88;;;11.50;99.90;;;;;;5067662;28;20049;-75
2023/01/02 00:04:27;;;;;;;17.13;13.07;;;11.40;99.90;;;;;;5060044;28;20052;-75
2023/01/02 00:06:55;;;;;;;18.35;10.07;;;11.30;99.90;;;;;;5059803;28;20044;-75
2023/01/02 00:09:24;;;;;;;14.68;11.32;;;11.20;99.90;;;;;;5072929;28;20043;-75
2023/01/02 00:11:51;;;;;;;13.27;10.30;;;11.00;99.90;;;;;;5082045;28;20111;-75
2023/01/02 00:14:19;;;;;;;14.13;10.75;;;10.80;99.90;;;;;;5079643;28;20122;-75
2023/01/02 00:16:46;;;;;;;12.27;8.35;;;10.70;99.90;;;;;;5095353;28;20155;-75
2023/01/02 00:19:13;;;;;;;15.02;10.52;;;10.70;99.90;;;;;;5100606;28;20043;-75
2023/01/02 00:21:41;;;;;;;13.25;9.25;;;10.70;99.90;;;;;;5081560;28;20048;-75
2023/01/02 00:24:09;;;;;;;14.30;9.50;;;10.70;99.90;;;;;;5086832;28;20055;-75
2023/01/02 00:26:36;;;;;;;10.35;8.55;;;10.70;99.90;;;;;;5087476;28;20052;-75
2023/01/02 00:29:04;;;;;;;13.10;9.88;;;10.70;99.90;;;;;;5088531;28;20047;-75
2023/01/02 00:31:31;;;;;;;10.60;8.07;;;10.70;99.90;;;;;;5088507;28;20375;-75
2023/01/02 00:33:59;;;;;;;9.95;8.27;;;10.80;99.90;;;;;;5086722;28;20050;-74
2023/01/02 00:36:27;;;;;;;11.60;7.90;;;10.90;99.90;;;;;;5088865;28;20469;-75
2023/01/02 00:38:58;;;;;;;11.10;8.05;;;10.90;99.90;;;;;;5070713;28;20055;-75
2023/01/02 00:41:25;;;;;;;10.30;8.02;;;10.90;99.90;;;;;;5088491;28;20415;-75
2023/01/02 00:43:53;;;;;;;13.23;9.25;;;11.00;99.90;;;;;;5088438;28;20048;-74
2023/01/02 00:46:22;;;;;;;13.18;8.52;;;11.10;99.90;;;;;;5088438;28;20084;-74
2023/01/02 00:48:49;;;;;;;10.70;7.22;;;11.20;99.90;;;;;;5087449;28;20052;-75
2023/01/02 00:51:17;;;;;;;8.73;6.32;;;11.20;99.90;;;;;;5087791;28;20036;-75
2023/01/02 00:53:45;;;;;;;11.00;7.15;;;11.30;99.90;;;;;;5068979;28;20045;-75
2023/01/02 00:56:12;;;;;;;13.05;8.50;;;11.30;99.90;;;;;;5071640;28;20048;-75
2023/01/02 00:58:40;;;;;;;27.63;11.18;;;11.20;99.90;;;;;;5070647;28;20053;-75
2023/01/02 01:01:07;;;;;;;20.67;9.63;;;11.00;99.90;;;;;;5057129;28;20408;-77
2023/01/02 01:03:35;;;;;;;18.83;9.07;;;10.70;99.90;;;;;;5092853;28;20401;-77
2023/01/02 01:06:07;;;;;;;12.98;8.02;;;10.60;99.90;;;;;;5092951;28;20436;-77
2023/01/02 01:08:36;;;;;;;13.32;8.00;;;10.60;99.90;;;;;;5091912;28;20048;-77
2023/01/02 01:11:08;;;;;;;11.18;8.10;;;10.60;99.90;;;;;;5091444;28;20040;-77
2023/01/02 01:13:36;;;;;;;12.75;8.88;;;10.60;99.90;;;;;;5091850;28;20494;-77
2023/01/02 01:16:10;;;;;;;9.77;6.95;;;10.60;99.90;;;;;;5090265;28;20037;-77
2023/01/02 01:18:37;;;;;;;17.45;8.77;;;10.50;99.90;;;;;;5074030;28;20509;-77
2023/01/02 01:21:14;;;;;;;10.65;7.47;;;10.30;99.90;;;;;;5090376;28;20052;-77
2023/01/02 01:23:41;;;;;;;13.23;7.93;;;10.20;99.90;;;;;;5091364;28;20063;-77
2023/01/02 01:26:11;;;;;;;10.00;8.10;;;10.20;99.90;;;;;;5090722;28;20048;-76
2023/01/02 01:28:39;;;;;;;15.93;8.05;;;10.20;99.90;;;;;;5091412;28;20048;-77
2023/01/02 01:31:09;;;;;;;16.20;8.45;;;10.20;99.90;;;;;;5089367;28;20046;-77
2023/01/02 01:33:37;;;;;;;14.65;8.35;;;10.20;99.90;;;;;;5072833;28;20223;-77
2023/01/02 01:36:10;;;;;;;30.65;9.90;;;10.00;99.90;;;;;;5089935;28;20083;-77
2023/01/02 01:38:39;;;;;;;13.98;8.80;;;10.00;99.90;;;;;;5090645;28;20036;-77
2023/01/02 01:41:07;;;;;;;12.23;6.80;;;10.00;99.90;;;;;;5090995;28;20047;-77
2023/01/02 01:43:43;;;;;;;10.98;7.95;;;10.00;99.90;;;;;;5091108;28;20513;-77
2023/01/02 01:46:20;;;;;;;12.35;6.50;;;10.10;99.90;;;;;;5089679;28;20051;-77
2023/01/02 01:48:53;;;;;;;14.75;9.15;;;10.20;99.90;;;;;;5090832;28;20050;-77
2023/01/02 01:51:23;;;;;;;12.43;9.05;;;10.20;99.90;;;;;;5074059;28;20048;-77
2023/01/02 01:54:07;;;;;;;12.93;9.20;;;10.30;99.90;;;;;;5071552;28;20145;-77
2023/01/02 01:56:39;;;;;;;16.85;10.07;;;10.40;99.90;;;;;;5070665;28;20053;-77
2023/01/02 01:59:10;;;;;;;18.40;8.93;;;10.50;99.90;;;;;;5069209;28;20087;-77
2023/01/02 02:01:42;;;;;;;12.55;8.48;;;10.60;99.90;;;;;;5066345;28;20356;-77
2023/01/02 02:04:19;;;;;;;11.95;8.25;;;10.70;99.90;;;;;;5073277;28;20101;-76
2023/01/02 02:06:49;;;;;;;11.75;8.20;;;10.70;99.90;;;;;;5072330;28;20138;-77
2023/01/02 02:09:23;;;;;;;13.40;7.35;;;10.80;99.90;;;;;;5090893;28;20044;-76
2023/01/02 02:11:58;;;;;;;12.48;6.93;;;10.90;99.90;;;;;;5090264;28;20533;-76
2023/01/02 02:14:39;;;;;;;16.15;7.50;;;10.90;99.90;;;;;;5090903;28;20044;-77
2023/01/02 02:17:12;;;;;;;12.88;7.00;;;11.00;99.90;;;;;;5073623;28;20473;-77
2023/01/02 02:19:58;;;;;;;7.82;5.50;;;11.10;99.90;;;;;;5069287;28;20087;-76
2023/01/02 02:22:44;;;;;;;10.20;7.13;;;11.10;99.90;;;;;;5085171;28;20040;-77
2023/01/02 02:25:20;;;;;;;12.70;7.25;;;11.20;99.90;;;;;;5090766;28;20048;-77
2023/01/02 02:28:15;;;;;;;12.85;7.22;;;11.20;99.90;;;;;;5090888;28;20040;-77
2023/01/02 02:30:57;;;;;;;10.95;8.23;;;11.30;99.90;;;;;;5089785;28;20066;-77
2023/01/02 02:33:49;;;;;;;13.73;7.97;;;11.30;99.90;;;;;;5084720;28;20056;-77
2023/01/02 02:36:35;;;;;;;12.02;7.93;;;11.20;99.90;;;;;;5055156;28;20113;-77
2023/01/02 02:39:24;;;;;;;10.63;7.03;;;11.20;99.90;;;;;;5090512;28;20044;-76
2023/01/02 02:42:17;;;;;;;12.65;7.72;;;11.20;99.90;;;;;;5071557;28;20094;-77
2023/01/02 02:45:28;;;;;;;14.00;8.65;;;11.20;99.90;;;;;;5089247;28;20054;-76
2023/01/02 02:48:10;;;;;;;10.15;6.75;;;11.20;99.90;;;;;;5082079;28;20064;-76
2023/01/02 02:51:00;;;;;;;10.55;7.30;;;11.20;99.90;;;;;;5089019;28;20426;-77
2023/01/02 02:53:35;;;;;;;12.40;8.60;;;11.20;99.90;;;;;;5088830;28;20138;-76
2023/01/02 02:56:06;;;;;;;9.60;6.95;;;11.20;99.90;;;;;;5088453;28;20442;-77
2023/01/02 02:58:35;;;;;;;13.57;8.15;;;11.20;99.90;;;;;;5088488;28;20151;-76
2023/01/02 03:01:05;;;;;;;13.60;8.95;;;11.20;99.90;;;;;;5088826;28;20444;-77
2023/01/02 03:03:33;;;;;;;11.73;8.35;;;11.30;99.90;;;;;;5088831;28;20069;-77
2023/01/02 03:06:17;;;;;;;12.25;8.00;;;11.30;99.90;;;;;;5089497;28;20135;-77
2023/01/02 03:09:02;;;;;;;12.57;8.95;;;11.30;99.90;;;;;;5069823;28;20067;-77
2023/01/02 03:12:04;;;;;;;12.07;6.45;;;11.30;99.90;;;;;;5051915;28;20482;-77
2023/01/02 03:14:59;;;;;;;13.30;6.28;;;11.20;99.90;;;;;;5084025;28;20086;-77
2023/01/02 03:17:38;;;;;;;20.00;6.65;;;11.20;99.90;;;;;;5060997;28;20075;-77
2023/01/02 03:20:11;;;;;;;22.33;6.95;;;11.10;99.90;;;;;;5071663;28;20074;-77
2023/01/02 03:22:45;;;;;;;9.02;6.07;;;11.00;99.90;;;;;;5071326;28;20040;-76
2023/01/02 03:25:18;;;;;;;7.50;5.35;;;11.00;99.90;;;;;;5088346;28;20078;-77
2023/01/02 03:27:49;;;;;;;7.50;4.97;;;11.00;99.90;;;;;;5071406;28;20056;-77
2023/01/02 03:30:20;;;;;;;9.05;5.15;;;11.00;99.90;;;;;;5088094;28;20032;-77
2023/01/02 03:33:02;;;;;;;10.15;5.93;;;11.00;99.90;;;;;;5089648;28;20454;-77
2023/01/02 03:35:54;;;;;;;11.60;5.30;;;10.90;99.90;;;;;;5089467;28;20052;-77
2023/01/02 03:38:29;;;;;;;21.45;7.47;;;10.90;99.90;;;;;;5087970;28;20040;-77
2023/01/02 03:41:14;;;;;;;12.38;6.20;;;10.80;99.90;;;;;;5087696;28;20044;-77
2023/01/02 03:43:44;;;;;;;8.55;5.22;;;10.70;99.90;;;;;;5089587;28;20155;-77
2023/01/02 03:46:30;;;;;;;12.57;4.75;;;10.70;99.90;;;;;;5070281;28;20075;-77
2023/01/02 03:49:11;;;;;;;12.35;7.25;;;10.60;99.90;;;;;;5067898;28;20474;-77
2023/01/02 03:51:40;;;;;;;7.97;5.55;;;10.50;99.90;;;;;;5067634;28;20047;-77
2023/01/02 03:54:09;;;;;;;8.90;4.88;;;10.40;99.90;;;;;;5088450;28;20055;-76
2023/01/02 03:56:45;;;;;;;5.35;4.43;;;10.30;99.90;;;;;;5087134;28;20062;-77
2023/01/02 03:59:31;;;;;;;7.22;5.07;;;10.30;99.90;;;;;;5070331;28;20064;-76
2023/01/02 04:02:38;;;;;;;5.25;4.43;;;10.30;99.90;;;;;;5088986;28;20126;-77
2023/01/02 04:05:08;;;;;;;5.40;3.78;;;10.20;99.90;;;;;;5087547;28;20054;-77
2023/01/02 04:07:40;;;;;;;7.22;5.20;;;10.10;99.90;;;;;;5071239;28;20048;-77
2023/01/02 04:10:10;;;;;;;8.60;5.00;;;10.00;99.90;;;;;;5085000;28;20875;-76
2023/01/02 04:12:41;;;;;;;7.32;4.75;;;9.90;99.90;;;;;;5074951;28;20573;-77
2023/01/02 04:15:11;;;;;;;11.75;7.00;;;9.90;99.90;;;;;;5087175;28;20040;-77
2023/01/02 04:17:48;;;;;;;9.70;5.53;;;9.90;99.90;;;;;;5088814;28;20048;-77
2023/01/02 04:20:30;;;;;;;8.00;4.75;;;9.90;99.90;;;;;;5067922;28;20048;-77
2023/01/02 04:23:04;;;;;;;8.95;6.05;;;9.80;99.90;;;;;;5071809;28;20135;-77
2023/01/02 04:25:44;;;;;;;5.63;4.05;;;9.80;99.90;;;;;;5089953;28;20055;-76
2023/01/02 04:28:17;;;;;;;6.47;4.32;;;9.90;99.90;;;;;;5092217;28;20071;-77
2023/01/02 04:30:49;;;;;;;7.70;5.50;;;10.00;99.90;;;;;;5091870;28;20101;-77
2023/01/02 04:33:21;;;;;;;7.53;4.72;;;10.00;99.90;;;;;;5093278;28;20044;-76
2023/01/02 04:35:48;;;;;;;6.15;4.80;;;10.10;99.90;;;;;;5093394;28;20553;-77
2023/01/02 04:38:16;;;;;;;13.98;5.10;;;10.20;99.90;;;;;;5074816;28;20044;-77
2023/01/02 04:40:50;;;;;;;13.75;6.45;;;10.20;99.90;;;;;;5092672;28;20082;-77
2023/01/02 04:43:20;;;;;;;7.93;4.93;;;10.10;99.90;;;;;;5093243;28;20510;-77
2023/01/02 04:45:48;;;;;;;8.20;4.95;;;10.10;99.90;;;;;;5091188;28;20079;-77
2023/01/02 04:48:16;;;;;;;6.60;4.20;;;10.10;99.90;;;;;;5092193;28;20036;-76
2023/01/02 04:50:53;;;;;;;8.85;4.05;;;10.20;99.90;;;;;;5092290;28;20086;-76
2023/01/02 04:53:47;;;;;;;4.63;3.50;;;10.20;99.90;;;;;;5075318;28;20064;-76
2023/01/02 04:56:14;;;;;;;7.40;4.32;;;10.20;99.90;;;;;;5093466;28;20044;-77
2023/01/02 04:58:46;;;;;;;9.57;4.22;;;10.30;99.90;;;;;;5092958;28;20531;-77
2023/01/02 05:01:16;;;;;;;6.05;4.28;;;10.40;99.90;;;;;;5093070;28;20467;-77
2023/01/02 05:03:46;;;;;;;10.35;4.70;;;10.40;99.90;;;;;;5075054;28;20047;-77
2023/01/02 05:06:14;;;;;;;6.65;5.10;;;10.40;99.90;;;;;;5092614;28;20448;-77
2023/01/02 05:08:42;;;;;;;8.10;5.57;;;10.50;99.90;;;;;;5092809;28;20051;-77
2023/01/02 05:11:15;;;;;;;8.65;5.13;;;10.50;99.90;;;;;;5057666;28;20553;-76
2023/01/02 05:13:43;;;;;;;10.35;7.07;;;10.50;99.90;;;;;;5091674;28;20040;-77
2023/01/02 05:16:10;;;;;;;10.13;6.28;;;10.60;99.90;;;;;;5092782;28;20040;-76
2023/01/02 05:18:38;;;;;;;9.23;6.65;;;10.60;99.90;;;;;;5092855;28;20074;-77
2023/01/02 05:23:57;;;;;;;11.02;6.85;;;10.60;99.90;;;;;;5092633;28;20151;-76
2023/01/02 05:26:25;;;;;;;9.45;7.00;;;10.60;99.90;;;;;;5092668;28;20043;-76
2023/01/02 05:28:53;;;;;;;10.93;7.15;;;10.60;99.90;;;;;;5073779;28;20051;-77
2023/01/02 05:31:21;;;;;;;13.00;8.77;;;10.60;99.90;;;;;;5074661;28;20052;-77
2023/01/02 05:33:53;;;;;;;12.55;8.52;;;10.60;99.90;;;;;;5092694;28;20048;-77
2023/01/02 05:36:23;;;;;;;16.58;8.20;;;10.60;99.90;;;;;;5091343;28;20058;-77
2023/01/02 05:38:51;;;;;;;33.13;17.27;;;10.60;99.90;;;;;;5091095;28;20252;-76
2023/01/02 05:41:20;;;;;;;34.65;21.13;;;10.60;99.90;;;;;;5091498;28;20435;-77
2023/01/02 05:43:48;;;;;;;39.70;25.15;;;10.50;99.90;;;;;;5090004;28;20135;-77
2023/01/02 05:46:17;;;;;;;44.33;22.30;;;10.50;99.90;;;;;;5089096;28;20143;-76
2023/01/02 05:48:45;;;;;;;61.70;30.67;;;10.50;99.90;;;;;;5090027;28;20044;-77
2023/01/02 05:51:15;;;;;;;63.58;19.50;;;10.50;99.90;;;;;;5089666;28;20457;-77
2023/01/02 05:53:43;;;;;;;33.63;16.80;;;10.50;99.90;;;;;;5091565;28;20058;-77
2023/01/02 05:56:17;;;;;;;29.40;16.40;;;10.40;99.90;;;;;;5089704;28;20113;-77
2023/01/02 05:58:54;;;;;;;11.85;7.47;;;10.30;99.90;;;;;;5089604;28;20052;-76
2023/01/02 06:01:29;;;;;;;15.10;6.60;;;10.30;99.90;;;;;;5089672;28;20135;-77
2023/01/02 06:04:01;;;;;;;17.55;5.38;;;10.30;99.90;;;;;;5089527;28;20044;-76
2023/01/02 06:06:37;;;;;;;12.90;7.72;;;10.30;99.90;;;;;;5089264;28;20047;-77
2023/01/02 06:09:07;;;;;;;43.05;13.75;;;10.30;99.90;;;;;;5070780;28;20139;-77
2023/01/02 06:11:35;;;;;;;25.02;14.30;;;10.40;99.90;;;;;;5068389;28;20382;-77
2023/01/02 06:14:03;;;;;;;23.98;13.80;;;10.30;99.90;;;;;;5087694;28;20044;-77
2023/01/02 06:16:31;;;;;;;33.70;14.63;;;10.30;99.90;;;;;;5075386;28;20051;-76
2023/01/02 06:18:58;;;;;;;39.33;20.95;;;10.30;99.90;;;;;;5090052;28;20221;-77
2023/01/02 06:21:29;;;;;;;23.77;15.38;;;10.30;99.90;;;;;;5089178;28;20497;-77
2023/01/02 06:24:02;;;;;;;34.80;21.60;;;10.30;99.90;;;;;;5088553;28;20044;-76
2023/01/02 06:26:32;;;;;;;35.40;21.85;;;10.30;99.90;;;;;;5089406;28;20048;-76
2023/01/02 06:29:02;;;;;;;64.32;27.95;;;10.30;99.90;;;;;;5090120;28;20468;-76
2023/01/02 06:31:32;;;;;;;44.80;21.48;;;10.40;99.90;;;;;;5090707;28;20075;-77
2023/01/02 06:34:01;;;;;;;44.20;20.52;;;10.50;99.90;;;;;;5089254;28;20052;-76
2023/01/02 06:36:32;;;;;;;36.10;18.15;;;10.60;99.90;;;;;;5089826;28;20048;-76
2023/01/02 06:38:59;;;;;;;97.40;22.55;;;10.80;99.90;;;;;;5091091;28;20390;-77
2023/01/02 06:41:27;;;;;;;69.93;20.85;;;10.90;99.90;;;;;;5073186;28;20583;-77
2023/01/02 06:43:55;;;;;;;55.20;13.85;;;10.90;99.90;;;;;;5091268;28;20135;-77
2023/01/02 06:46:23;;;;;;;46.75;11.45;;;10.90;99.90;;;;;;5089714;28;20036;-77
2023/01/02 06:48:51;;;;;;;25.90;8.82;;;10.80;99.90;;;;;;5088572;28;20133;-77
2023/01/02 06:51:20;;;;;;;24.50;8.80;;;11.00;99.90;;;;;;5072202;28;20051;-77
2023/01/02 06:53:49;;;;;;;35.83;7.95;;;11.20;99.90;;;;;;5089242;28;20060;-77
2023/01/02 06:56:18;;;;;;;27.88;7.50;;;11.40;99.90;;;;;;5089805;28;20052;-76
2023/01/02 06:58:46;;;;;;;8.98;5.65;;;11.70;99.90;;;;;;5090214;28;20052;-76
2023/01/02 07:01:21;;;;;;;8.93;4.85;;;12.10;99.90;;;;;;5072044;28;20490;-76
2023/01/02 07:03:54;;;;;;;23.73;6.78;;;12.30;99.90;;;;;;5088468;28;20044;-77
2023/01/02 07:06:28;;;;;;;19.17;7.25;;;12.50;99.90;;;;;;5088795;28;20048;-76
2023/01/02 07:09:00;;;;;;;11.35;5.47;;;12.70;99.90;;;;;;5088711;28;20358;-77
2023/01/02 07:11:29;;;;;;;12.38;4.63;;;13.00;99.90;;;;;;5072025;28;20391;-77
2023/01/02 07:13:56;;;;;;;10.52;3.63;;;13.40;99.90;;;;;;5072426;28;20481;-76
2023/01/02 07:16:30;;;;;;;15.32;6.20;;;13.20;99.90;;;;;;5089393;28;20042;-77
2023/01/02 07:19:00;;;;;;;11.13;5.78;;;13.60;99.90;;;;;;5071990;28;20063;-77
2023/01/02 07:21:28;;;;;;;15.25;9.80;;;14.40;99.90;;;;;;5089293;28;20044;-76
2023/01/02 07:23:58;;;;;;;17.08;11.18;;;14.90;99.90;;;;;;5088230;28;20070;-76
2023/01/02 07:26:29;;;;;;;11.43;7.30;;;15.60;99.90;;;;;;5087783;28;20044;-77
2023/01/02 07:29:00;;;;;;;13.43;7.88;;;16.50;99.90;;;;;;5089324;28;20064;-77
2023/01/02 07:31:29;;;;;;;19.55;11.88;;;17.10;99.90;;;;;;5090175;28;20087;-77
2023/01/02 07:33:57;;;;;;;22.20;12.35;;;17.40;99.90;;;;;;5089971;28;20072;-76
2023/01/02 07:36:25;;;;;;;89.70;50.53;;;17.80;99.90;;;;;;5090129;28;20059;-77
2023/01/02 07:38:56;;;;;;;45.97;30.70;;;18.10;99.90;;;;;;5088230;28;20040;-77
2023/01/02 07:41:24;;;;;;;17.95;13.48;;;18.30;99.90;;;;;;5089987;28;20497;-77
2023/01/02 07:43:55;;;;;;;19.77;15.23;;;18.50;99.90;;;;;;5089726;28;20040;-77
2023/01/02 07:46:23;;;;;;;14.73;11.63;;;18.90;99.90;;;;;;5088221;28;20127;-76
2023/01/02 07:48:51;;;;;;;13.93;9.55;;;19.00;99.90;;;;;;5088431;28;20040;-77
2023/01/02 07:51:18;;;;;;;12.13;8.68;;;19.10;99.90;;;;;;5090119;28;20474;-77
2023/01/02 07:53:48;;;;;;;6.57;4.30;;;19.00;99.90;;;;;;5089662;28;20502;-77
2023/01/02 07:56:16;;;;;;;5.47;3.33;;;18.70;99.90;;;;;;5089185;28;20254;-74
2023/01/02 07:58:43;;;;;;;4.13;2.97;;;18.20;99.90;;;;;;5087363;28;20072;-76
2023/01/02 08:01:12;;;;;;;6.93;3.63;;;18.10;99.90;;;;;;5088748;28;20039;-76
2023/01/02 08:03:40;;;;;;;5.35;4.40;;;17.90;99.90;;;;;;5088636;28;20127;-76
2023/01/02 08:06:11;;;;;;;8.07;5.68;;;17.90;99.90;;;;;;5087636;28;20041;-75
2023/01/02 08:08:38;;;;;;;11.98;7.68;;;18.00;99.90;;;;;;5087456;28;20357;-75
2023/01/02 08:11:07;;;;;;;19.38;10.43;;;17.90;99.90;;;;;;5071193;28;20101;-75
2023/01/02 08:13:35;;;;;;;18.98;12.43;;;17.80;99.90;;;;;;5088832;28;20048;-75
2023/01/02 08:16:08;;;;;;;12.57;9.88;;;17.80;99.90;;;;;;5088959;28;20044;-75
2023/01/02 08:18:35;;;;;;;12.95;8.32;;;17.90;99.90;;;;;;5071101;28;20040;-75
2023/01/02 08:21:05;;;;;;;7.82;5.45;;;18.00;99.90;;;;;;5074075;28;20410;-75
2023/01/02 08:23:33;;;;;;;9.93;6.05;;;17.90;99.90;;;;;;5061421;28;20137;-76
2023/01/02 08:26:03;;;;;;;11.30;7.05;;;18.00;99.90;;;;;;5085134;28;20484;-76
2023/01/02 08:28:32;;;;;;;7.63;5.30;;;18.20;99.90;;;;;;5070268;28;20052;-76
2023/01/02 08:31:00;;;;;;;5.78;4.28;;;18.30;99.90;;;;;;5087390;28;20058;-76
2023/01/02 08:33:27;;;;;;;6.10;4.35;;;18.00;99.90;;;;;;5087327;28;20131;-76
2023/01/02 08:35:55;;;;;;;9.20;4.43;;;17.90;99.90;;;;;;5054573;28;20044;-75
2023/01/02 08:38:23;;;;;;;7.82;4.57;;;18.10;99.90;;;;;;5088361;28;20126;-76
2023/01/02 08:40:50;;;;;;;6.50;4.25;;;18.20;99.90;;;;;;5088492;28;20502;-76
2023/01/02 08:43:18;;;;;;;7.97;3.90;;;18.10;99.90;;;;;;5087306;28;20070;-76
2023/01/02 08:45:45;;;;;;;5.40;4.25;;;17.90;99.90;;;;;;5088561;28;20042;-76
2023/01/02 08:48:13;;;;;;;7.35;4.10;;;17.80;99.90;;;;;;5088266;28;20048;-76
2023/01/02 08:50:40;;;;;;;7.75;4.47;;;17.40;99.90;;;;;;5070618;28;20397;-75
2023/01/02 08:53:08;;;;;;;6.90;4.60;;;17.50;99.90;;;;;;5087088;28;20048;-77
2023/01/02 08:55:38;;;;;;;6.30;4.47;;;17.60;99.90;;;;;;5087557;28;20048;-76
2023/01/02 08:58:06;;;;;;;7.10;5.22;;;17.60;99.90;;;;;;5088081;28;20113;-75
2023/01/02 09:00:33;;;;;;;7.72;5.20;;;17.40;99.90;;;;;;5070142;28;20059;-76
2023/01/02 09:03:01;;;;;;;7.53;4.13;;;17.30;99.90;;;;;;5070855;28;20444;-76
2023/01/02 09:05:29;;;;;;;7.20;4.43;;;17.30;99.90;;;;;;5088287;28;20040;-77
2023/01/02 09:07:58;;;;;;;6.10;4.57;;;17.20;99.90;;;;;;5087053;28;20126;-76
2023/01/02 09:10:25;;;;;;;7.07;4.30;;;17.40;99.90;;;;;;5086947;28;20052;-76
2023/01/02 09:12:53;;;;;;;6.82;4.50;;;17.40;99.90;;;;;;5089320;28;20040;-76
2023/01/02 09:15:21;;;;;;;8.43;5.35;;;17.70;99.90;;;;;;5089965;28;20097;-76
2023/01/02 09:17:48;;;;;;;8.68;6.35;;;17.90;99.90;;;;;;5091890;28;20127;-76
2023/01/02 09:20:16;;;;;;;9.48;6.07;;;18.10;99.90;;;;;;5072391;28;20049;-77
2023/01/02 09:22:43;;;;;;;8.63;4.75;;;18.10;99.90;;;;;;5089887;28;20070;-76
2023/01/02 09:25:11;;;;;;;7.15;4.47;;;17.90;99.90;;;;;;5089835;28;20051;-76
2023/01/02 09:27:39;;;;;;;9.52;7.05;;;17.70;99.90;;;;;;5091289;28;20036;-76
2023/01/02 09:30:07;;;;;;;7.38;5.75;;;17.80;99.90;;;;;;5089654;28;20040;-76
2023/01/02 09:32:36;;;;;;;12.82;7.82;;;17.70;99.90;;;;;;5089573;28;20072;-76
2023/01/02 09:35:04;;;;;;;9.25;6.32;;;17.90;99.90;;;;;;5089186;28;20054;-76
2023/01/02 09:37:31;;;;;;;10.55;5.78;;;18.00;99.90;;;;;;5089832;28;20490;-76
2023/01/02 09:39:59;;;;;;;9.52;4.85;;;18.20;99.90;;;;;;5072809;28;20048;-76
2023/01/02 09:42:26;;;;;;;6.25;4.00;;;18.60;99.90;;;;;;5089940;28;20040;-76
2023/01/02 09:44:57;;;;;;;5.75;4.18;;;18.80;99.90;;;;;;5091594;28;20059;-76
2023/01/02 09:47:28;;;;;;;7.60;5.43;;;19.20;99.90;;;;;;5089815;28;20064;-76
2023/01/02 09:50:06;;;;;;;6.78;3.85;;;19.40;99.90;;;;;;5072881;28;20051;-76
2023/01/02 09:52:44;;;;;;;6.63;4.65;;;19.70;99.90;;;;;;5090743;28;20036;-76
2023/01/02 09:55:26;;;;;;;11.13;5.00;;;19.90;99.90;;;;;;5056537;28;20052;-76
2023/01/02 09:58:20;;;;;;;6.40;4.32;;;19.80;99.90;;;;;;5072894;28;20047;-76
2023/01/02 10:00:49;;;;;;;6.25;5.47;;;19.70;99.90;;;;;;5088524;28;20048;-75
2023/01/02 10:03:37;;;;;;;6.43;4.70;;;19.50;99.90;;;;;;5091076;28;20509;-76
2023/01/02 10:06:18;;;;;;;10.18;5.43;;;19.50;99.90;;;;;;5072916;28;20490;-75
2023/01/02 10:09:07;;;;;;;7.80;5.63;;;19.70;99.90;;;;;;5072395;28;20052;-75
2023/01/02 10:11:52;;;;;;;7.90;4.82;;;19.80;99.90;;;;;;5090613;28;20051;-75
2023/01/02 10:14:47;;;;;;;7.05;5.38;;;19.90;99.90;;;;;;5088875;28;20044;-76
2023/01/02 10:17:16;;;;;;;7.85;5.10;;;20.10;99.90;;;;;;5055967;28;20153;-77
2023/01/02 10:20:02;;;;;;;5.68;4.60;;;20.30;99.90;;;;;;5089105;28;20117;-76
2023/01/02 10:22:34;;;;;;;10.50;4.53;;;20.40;99.90;;;;;;5089811;28;20070;-76
2023/01/02 10:25:12;;;;;;;6.93;4.38;;;20.60;99.90;;;;;;5088323;28;20040;-76
2023/01/02 10:27:47;;;;;;;5.90;4.13;;;20.50;99.90;;;;;;5088164;28;20478;-76
2023/01/02 10:30:21;;;;;;;12.10;4.78;;;20.50;99.90;;;;;;5074229;28;20048;-77
2023/01/02 10:32:59;;;;;;;8.48;4.80;;;20.50;99.90;;;;;;5072551;28;20544;-74
2023/01/02 10:35:35;;;;;;;7.32;5.05;;;20.30;99.90;;;;;;5089281;28;20051;-75
2023/01/02 10:38:03;;;;;;;10.50;5.25;;;20.20;99.90;;;;;;5088613;28;20781;-75
2023/01/02 10:40:32;;;;;;;8.38;5.50;;;19.80;99.90;;;;;;5090075;28;20040;-75
2023/01/02 10:43:00;;;;;;;10.52;5.43;;;19.70;99.90;;;;;;5072088;28;20055;-75
2023/01/02 10:45:28;;;;;;;7.53;5.10;;;19.80;99.90;;;;;;5072283;28;20393;-76
2023/01/02 10:47:56;;;;;;;9.50;6.68;;;19.80;99.90;;;;;;5071979;28;20060;-76
2023/01/02 10:50:39;;;;;;;9.10;5.53;;;20.00;99.90;;;;;;5088755;28;20044;-76
2023/01/02 10:53:18;;;;;;;8.88;6.07;;;20.00;99.90;;;;;;5089906;28;20040;-76
2023/01/02 10:55:45;;;;;;;10.48;7.32;;;20.20;99.90;;;;;;5089025;28;20086;-75
2023/01/02 10:58:20;;;;;;;11.38;7.80;;;20.30;99.90;;;;;;5089600;28;20048;-75
2023/01/02 11:00:50;;;;;;;10.70;7.13;;;20.40;99.90;;;;;;5088349;28;20131;-76
2023/01/02 11:03:24;;;;;;;9.48;6.47;;;20.40;99.90;;;;;;5088101;28;20150;-76
2023/01/02 11:05:54;;;;;;;10.57;5.97;;;20.50;99.90;;;;;;5089497;28;20059;-76
2023/01/02 11:08:34;;;;;;;7.28;5.63;;;20.60;99.90;;;;;;5071564;28;20067;-76
2023/01/02 11:11:15;;;;;;;9.40;5.28;;;20.60;99.90;;;;;;5089853;28;20113;-75
2023/01/02 11:13:48;;;;;;;9.60;5.43;;;20.60;99.90;;;;;;5071363;28;20075;-76
2023/01/02 11:16:24;;;;;;;8.80;5.30;;;20.60;99.90;;;;;;5087995;28;20410;-75
2023/01/02 11:18:53;;;;;;;9.52;6.00;;;20.60;99.90;;;;;;5088082;28;20052;-75
2023/01/02 11:21:31;;;;;;;9.25;5.97;;;20.60;99.90;;;;;;5088386;28;20044;-76
2023/01/02 11:24:14;;;;;;;6.95;4.60;;;20.70;99.90;;;;;;5088992;28;20356;-76
2023/01/02 11:26:43;;;;;;;8.20;5.78;;;20.70;99.90;;;;;;5089514;28;20047;-75
2023/01/02 11:29:29;;;;;;;7.70;4.78;;;20.70;99.90;;;;;;5087626;28;20052;-76
2023/01/02 11:32:00;;;;;;;7.95;4.97;;;20.70;99.90;;;;;;5089184;28;20819;-76
2023/01/02 11:34:52;;;;;;;6.43;4.82;;;20.80;99.90;;;;;;5071480;28;20482;-76
2023/01/02 11:37:20;;;;;;;9.65;6.20;;;20.80;99.90;;;;;;5088812;28;20519;-76
2023/01/02 11:40:23;;;;;;;6.72;5.50;;;20.80;99.90;;;;;;5088048;28;20494;-76
2023/01/02 11:45:42;;;;;;;8.13;5.13;;;20.50;99.90;;;;;;5089238;28;20044;-76
2023/01/02 11:48:14;;;;;;;9.45;5.20;;;20.50;99.90;;;;;;5088500;28;20050;-76
2023/01/02 11:50:42;;;;;;;8.35;5.05;;;20.60;99.90;;;;;;5089435;28;20039;-76
2023/01/02 11:53:13;;;;;;;6.55;4.85;;;20.60;99.90;;;;;;5089033;28;20137;-76
2023/01/02 11:56:23;;;;;;;8.50;6.47;;;20.70;99.90;;;;;;5071318;28;20142;-76
2023/01/02 11:59:15;;;;;;;11.45;7.30;;;20.70;99.90;;;;;;5071674;28;20150;-76
2023/01/02 12:01:52;;;;;;;8.80;6.68;;;20.50;99.90;;;;;;5087559;28;20044;-75
2023/01/02 12:04:22;;;;;;;13.93;8.50;;;20.30;99.90;;;;;;5070675;28;20054;-76
2023/01/02 12:07:08;;;;;;;8.40;6.40;;;20.10;99.90;;;;;;5087642;28;20047;-76
2023/01/02 12:10:00;;;;;;;7.30;5.53;;;20.00;99.90;;;;;;5089186;28;20044;-76
2023/01/02 12:12:46;;;;;;;8.05;6.15;;;19.90;99.90;;;;;;5087562;28;20101;-76
2023/01/02 12:15:33;;;;;;;11.03;7.17;;;19.70;99.90;;;;;;5089029;28;20033;-75
2023/01/02 12:18:13;;;;;;;10.32;6.97;;;19.70;99.90;;;;;;5087457;28;20055;-75
2023/01/02 12:20:48;;;;;;;12.07;8.50;;;19.60;99.90;;;;;;5087217;28;20456;-76
2023/01/02 12:23:43;;;;;;;13.30;8.23;;;19.50;99.90;;;;;;5088964;28;20036;-76
2023/01/02 12:26:13;;;;;;;12.45;7.78;;;19.60;99.90;;;;;;5087024;28;20048;-75
2023/01/02 12:28:53;;;;;;;15.77;11.35;;;19.70;99.90;;;;;;5087596;28;20514;-75
2023/01/02 12:31:26;;;;;;;18.17;10.82;;;19.70;99.90;;;;;;5085112;28;20406;-75
2023/01/02 12:34:29;;;;;;;14.32;10.32;;;19.80;99.90;;;;;;5069858;28;20109;-75
2023/01/02 12:37:25;;;;;;;14.48;10.73;;;19.80;99.90;;;;;;5087244;28;20359;-75
2023/01/02 12:40:17;;;;;;;14.77;11.18;;;19.80;99.90;;;;;;5074965;28;20048;-75
2023/01/02 12:43:09;;;;;;;15.57;11.23;;;19.70;99.90;;;;;;5087837;28;20040;-76
2023/01/02 12:46:04;;;;;;;16.17;10.38;;;19.50;99.90;;;;;;5070067;28;20040;-75
2023/01/02 12:49:04;;;;;;;12.52;9.13;;;19.30;99.90;;;;;;5089368;28;20109;-76
2023/01/02 12:51:57;;;;;;;14.18;9.13;;;19.10;99.90;;;;;;5048311;28;20079;-76
2023/01/02 12:54:46;;;;;;;12.55;9.35;;;19.00;99.90;;;;;;5054402;28;20048;-76
2023/01/02 12:57:25;;;;;;;12.38;8.85;;;19.00;99.90;;;;;;5070294;28;20041;-75
2023/01/02 13:00:15;;;;;;;13.85;11.30;;;19.10;99.90;;;;;;5079186;28;20379;-75
2023/01/02 13:03:15;;;;;;;15.05;9.85;;;19.00;99.90;;;;;;5092059;28;20388;-76
2023/01/02 13:05:59;;;;;;;16.10;11.10;;;19.00;99.90;;;;;;5089814;28;20063;-77
2023/01/02 13:08:51;;;;;;;19.42;10.45;;;18.90;99.90;;;;;;5090303;28;20701;-76
2023/01/02 13:11:50;;;;;;;15.32;10.30;;;18.80;99.90;;;;;;5073580;28;20063;-77
2023/01/02 13:14:24;;;;;;;41.60;25.88;;;18.60;99.90;;;;;;5063621;28;20052;-76
2023/01/02 13:17:08;;;;;;;170.93;112.40;;;18.50;99.90;;;;;;5073594;28;20583;-76
2023/01/02 13:19:44;;;;;;;34.25;27.10;;;18.40;99.90;;;;;;5090480;28;20067;-75